Terminal Aerodrome Forecast
Issued by NWS

Home | Current Version | Previous Version | Text Only | Print | Product List | Glossary On
Versions: 1 2 3 4 5 6 7 8 9 10 11 12
235
FTUS45 KTFX 102320
TAFLWT
TAF
KLWT 102320Z 1100/1124 25010KT P6SM BKN200
     FM110600 26015KT P6SM SCT040 BKN070
     FM111200 27015KT P6SM SCT080 BKN180
     FM112000 32011KT P6SM SCT025 BKN040=

USA.gov is the U.S. government's official web portal to all federal, state and local government web resources and services.